createdAt,value
2022-11-21T00:01:27.940Z,-2.47
2022-11-21T00:03:59.545Z,-2.39
2022-11-21T00:06:30.786Z,-2.41
2022-11-21T00:09:02.103Z,-2.33
2022-11-21T00:11:33.356Z,-2.32
2022-11-21T00:14:04.696Z,-2.27
2022-11-21T00:16:35.985Z,-2.20
2022-11-21T00:19:07.741Z,-2.19
2022-11-21T00:21:39.065Z,-2.19
2022-11-21T00:24:10.385Z,-2.12
2022-11-21T00:26:41.632Z,-2.10
2022-11-21T00:29:12.875Z,-2.04
2022-11-21T00:31:44.148Z,-2.03
2022-11-21T00:34:16.508Z,-2.00
2022-11-21T00:36:47.742Z,-2.01
2022-11-21T00:39:18.994Z,-2.01
2022-11-21T00:41:50.243Z,-1.92
2022-11-21T00:44:21.503Z,-1.88
2022-11-21T00:46:52.749Z,-1.84
2022-11-21T00:49:24.065Z,-1.81
2022-11-21T00:51:55.305Z,-1.71
2022-11-21T00:54:26.875Z,-1.64
2022-11-21T00:56:58.347Z,-1.56
2022-11-21T00:59:29.607Z,-1.57
2022-11-21T01:02:00.878Z,-1.55
2022-11-21T01:04:35.119Z,-1.55
2022-11-21T01:07:06.468Z,-1.51
2022-11-21T01:09:37.722Z,-1.39
2022-11-21T01:12:09.032Z,-1.36
2022-11-21T01:14:40.324Z,-1.29
2022-11-21T01:17:11.576Z,-1.25
2022-11-21T01:19:42.871Z,-1.23
2022-11-21T01:22:14.146Z,-1.14
2022-11-21T01:24:46.626Z,-1.09
2022-11-21T01:27:17.890Z,-1.07
2022-11-21T01:29:49.169Z,-1.00
2022-11-21T01:32:20.436Z,-0.96
2022-11-21T01:34:51.679Z,-1.01
2022-11-21T01:37:22.941Z,-0.97
2022-11-21T01:39:55.168Z,-0.93
2022-11-21T01:42:26.422Z,-0.94
2022-11-21T01:44:57.703Z,-0.88
2022-11-21T01:47:28.954Z,-0.85
2022-11-21T01:50:00.352Z,-0.81
2022-11-21T01:52:32.647Z,-0.80
2022-11-21T01:55:10.484Z,-0.81
2022-11-21T01:57:45.098Z,-0.80
2022-11-21T02:00:23.483Z,-0.83
2022-11-21T02:03:04.265Z,-0.82
2022-11-21T02:05:36.759Z,-0.79
2022-11-21T02:08:13.746Z,-0.79
2022-11-21T02:11:03.938Z,-0.77
2022-11-21T02:13:35.219Z,-0.73
2022-11-21T02:16:07.921Z,-0.73
2022-11-21T02:18:39.319Z,-0.73
2022-11-21T02:21:25.206Z,-0.69
2022-11-21T02:24:17.112Z,-0.68
2022-11-21T02:26:48.779Z,-0.76
2022-11-21T02:29:20.082Z,-0.66
2022-11-21T02:31:52.468Z,-0.59
2022-11-21T02:34:23.724Z,-0.69
2022-11-21T02:36:55.308Z,-0.75
2022-11-21T02:39:32.215Z,-0.66
2022-11-21T02:42:21.209Z,-0.67
2022-11-21T02:45:12.078Z,-0.62
2022-11-21T02:47:45.126Z,-0.70
2022-11-21T02:50:22.311Z,-0.67
2022-11-21T02:52:55.363Z,-0.66
2022-11-21T02:55:27.067Z,-0.61
2022-11-21T02:58:03.247Z,-0.62
2022-11-21T03:00:37.610Z,-0.68
2022-11-21T03:03:08.995Z,-0.61
2022-11-21T03:05:40.887Z,-0.60
2022-11-21T03:08:12.195Z,-0.67
2022-11-21T03:10:43.439Z,-0.69
2022-11-21T03:13:14.692Z,-0.86
2022-11-21T03:15:45.976Z,-0.77
2022-11-21T03:18:17.247Z,-0.73
2022-11-21T03:20:48.557Z,-0.65
2022-11-21T03:23:19.834Z,-0.62
2022-11-21T03:25:51.093Z,-0.67
2022-11-21T03:28:22.348Z,-0.75
2022-11-21T03:30:53.650Z,-0.74
2022-11-21T03:33:24.997Z,-0.68
2022-11-21T03:35:56.318Z,-0.64
2022-11-21T03:38:27.594Z,-0.64
2022-11-21T03:41:04.345Z,-0.57
2022-11-21T03:43:35.601Z,-0.59
2022-11-21T03:46:06.913Z,-0.62
2022-11-21T03:48:39.307Z,-0.67
2022-11-21T03:51:10.568Z,-0.72
2022-11-21T03:53:41.988Z,-0.77
2022-11-21T03:56:13.336Z,-0.73
2022-11-21T03:58:45.154Z,-0.71
2022-11-21T04:01:16.627Z,-0.67
2022-11-21T04:03:48.037Z,-0.69
2022-11-21T04:06:22.371Z,-0.65
2022-11-21T04:08:53.704Z,-0.66
2022-11-21T04:11:25.135Z,-0.66
2022-11-21T04:13:56.413Z,-0.66
2022-11-21T04:16:27.673Z,-0.66
2022-11-21T04:18:58.937Z,-0.63
2022-11-21T04:21:30.235Z,-0.69
2022-11-21T04:24:01.480Z,-0.71
2022-11-21T04:26:32.727Z,-0.71
2022-11-21T04:29:03.968Z,-0.72
2022-11-21T04:31:35.219Z,-0.79
2022-11-21T04:34:06.499Z,-0.75
2022-11-21T04:36:37.972Z,-0.75
2022-11-21T04:39:09.320Z,-0.82
2022-11-21T04:41:40.636Z,-0.82
2022-11-21T04:44:11.869Z,-0.83
2022-11-21T04:46:43.214Z,-0.82
2022-11-21T04:49:14.735Z,-0.84
2022-11-21T04:51:46.097Z,-0.87
2022-11-21T04:54:17.327Z,-0.86
2022-11-21T04:56:48.680Z,-0.88
2022-11-21T04:59:19.978Z,-0.89
2022-11-21T05:01:51.298Z,-0.89
2022-11-21T05:04:22.560Z,-0.91
2022-11-21T05:06:53.803Z,-0.92
2022-11-21T05:09:25.160Z,-0.87
2022-11-21T05:12:15.041Z,-0.89
2022-11-21T05:14:46.400Z,-0.88
2022-11-21T05:17:17.707Z,-0.83
2022-11-21T05:19:48.991Z,-0.91
2022-11-21T05:22:20.315Z,-0.86
2022-11-21T05:24:51.699Z,-0.84
2022-11-21T05:27:23.055Z,-0.83
2022-11-21T05:29:55.308Z,-0.87
2022-11-21T05:32:26.719Z,-0.89
2022-11-21T05:34:58.016Z,-0.86
2022-11-21T05:37:29.432Z,-0.85
2022-11-21T05:40:01.076Z,-0.76
2022-11-21T05:42:50.812Z,-0.76
2022-11-21T05:45:22.081Z,-0.74
2022-11-21T05:47:53.393Z,-0.70
2022-11-21T05:50:24.720Z,-0.74
2022-11-21T05:52:56.050Z,-0.72
2022-11-21T05:55:27.408Z,-0.75
2022-11-21T05:57:59.904Z,-0.69
2022-11-21T06:00:31.364Z,-0.66
2022-11-21T06:03:21.132Z,-0.73
2022-11-21T06:06:05.009Z,-0.70
2022-11-21T06:08:41.651Z,-0.71
2022-11-21T06:11:15.381Z,-0.71
2022-11-21T06:13:46.695Z,-0.65
2022-11-21T06:16:20.035Z,-0.62
2022-11-21T06:18:56.814Z,-0.70
2022-11-21T06:21:29.980Z,-0.84
2022-11-21T06:24:01.289Z,-0.88
2022-11-21T06:26:32.722Z,-0.86
2022-11-21T06:29:04.097Z,-0.83
2022-11-21T06:31:35.463Z,-0.83
2022-11-21T06:34:06.712Z,-0.77
2022-11-21T06:36:38.044Z,-0.77
2022-11-21T06:39:09.413Z,-0.78
2022-11-21T06:41:40.760Z,-0.87
2022-11-21T06:44:12.588Z,-0.87
2022-11-21T06:46:49.671Z,-0.94
2022-11-21T06:49:22.469Z,-0.94
2022-11-21T06:51:53.829Z,-0.95
2022-11-21T06:54:25.152Z,-0.88
2022-11-21T06:56:58.812Z,-0.85
2022-11-21T06:59:30.105Z,-0.83
2022-11-21T07:02:01.512Z,-0.88
2022-11-21T07:04:32.805Z,-0.91
2022-11-21T07:07:04.328Z,-0.89
2022-11-21T07:09:36.607Z,-0.89
2022-11-21T07:12:27.106Z,-0.89
2022-11-21T07:14:58.375Z,-0.86
2022-11-21T07:17:29.736Z,-0.85
2022-11-21T07:20:01.092Z,-0.83
2022-11-21T07:22:32.491Z,-0.80
2022-11-21T07:25:04.103Z,-0.78
2022-11-21T07:27:35.557Z,-0.66
2022-11-21T07:30:07.751Z,-0.64
2022-11-21T07:32:39.088Z,-0.67
2022-11-21T07:35:10.491Z,-0.68
2022-11-21T07:37:41.885Z,-0.71
2022-11-21T07:40:13.661Z,-0.65
2022-11-21T07:42:45.041Z,-0.60
2022-11-21T07:45:16.622Z,-0.61
2022-11-21T07:47:47.977Z,-0.63
2022-11-21T07:50:19.428Z,-0.55
2022-11-21T07:52:50.780Z,-0.54
2022-11-21T07:55:22.115Z,-0.51
2022-11-21T07:58:05.299Z,-0.47
2022-11-21T08:00:38.973Z,-0.47
2022-11-21T08:03:12.277Z,-0.50
2022-11-21T08:05:44.627Z,-0.58
2022-11-21T08:08:15.981Z,-0.54
2022-11-21T08:10:47.355Z,-0.55
2022-11-21T08:13:18.676Z,-0.51
2022-11-21T08:15:50.040Z,-0.43
2022-11-21T08:18:21.413Z,-0.36
2022-11-21T08:20:52.700Z,-0.32
2022-11-21T08:23:24.033Z,-0.27
2022-11-21T08:25:55.385Z,-0.26
2022-11-21T08:28:26.659Z,-0.18
2022-11-21T08:30:58.027Z,-0.15
2022-11-21T08:33:29.354Z,-0.10
2022-11-21T08:36:07.155Z,-0.11
2022-11-21T08:38:38.476Z,-0.10
2022-11-21T08:41:30.871Z,-0.06
2022-11-21T08:44:02.369Z,0.09
2022-11-21T08:46:37.088Z,0.11
2022-11-21T08:49:08.620Z,0.14
2022-11-21T08:51:40.088Z,0.11
2022-11-21T08:54:11.384Z,0.13
2022-11-21T08:56:42.764Z,0.22
2022-11-21T08:59:15.377Z,0.36
2022-11-21T09:01:46.873Z,0.49
2022-11-21T09:04:18.468Z,0.61
2022-11-21T09:06:49.709Z,0.72
2022-11-21T09:09:25.275Z,0.79
2022-11-21T09:11:57.132Z,1.01
2022-11-21T09:14:47.537Z,1.02
2022-11-21T09:17:37.660Z,1.09
2022-11-21T09:20:09.666Z,1.12
2022-11-21T09:22:41.136Z,1.11
2022-11-21T09:25:12.501Z,1.18
2022-11-21T09:27:43.875Z,1.22
2022-11-21T09:30:15.895Z,1.37
2022-11-21T09:32:47.204Z,1.39
2022-11-21T09:35:18.774Z,1.34
2022-11-21T09:37:51.695Z,1.32
2022-11-21T09:40:23.414Z,1.29
2022-11-21T09:43:35.824Z,1.28
2022-11-21T09:46:17.155Z,1.33
2022-11-21T09:48:55.065Z,1.36
2022-11-21T09:51:30.698Z,1.46
2022-11-21T09:54:07.323Z,1.54
2022-11-21T09:56:42.162Z,1.52
2022-11-21T09:59:32.576Z,1.47
2022-11-21T10:02:14.712Z,1.51
2022-11-21T10:04:47.379Z,1.62
2022-11-21T10:07:26.996Z,1.54
2022-11-21T10:10:08.677Z,1.61
2022-11-21T10:13:00.203Z,1.56
2022-11-21T10:15:54.868Z,1.48
2022-11-21T10:18:44.627Z,1.43
2022-11-21T10:21:15.839Z,1.41
2022-11-21T10:24:08.441Z,1.40
2022-11-21T10:26:52.581Z,1.37
2022-11-21T10:29:23.941Z,1.31
2022-11-21T10:32:01.193Z,1.17
2022-11-21T10:34:37.653Z,1.12
2022-11-21T10:37:30.311Z,1.08
2022-11-21T10:40:15.964Z,0.97
2022-11-21T10:43:29.129Z,0.95
2022-11-21T10:46:00.464Z,0.91
2022-11-21T10:48:31.832Z,0.89
2022-11-21T10:51:12.575Z,0.92
2022-11-21T10:54:07.575Z,0.86
2022-11-21T10:56:39.467Z,0.89
2022-11-21T10:59:30.096Z,0.86
2022-11-21T11:02:22.786Z,0.95
2022-11-21T11:05:15.743Z,0.95
2022-11-21T11:08:07.971Z,0.93
2022-11-21T11:10:40.607Z,0.91
2022-11-21T11:13:46.518Z,0.91
2022-11-21T11:16:21.380Z,0.85
2022-11-21T11:18:58.873Z,0.83
2022-11-21T11:21:44.046Z,0.81
2022-11-21T11:24:15.332Z,0.83
2022-11-21T11:26:46.569Z,0.84
2022-11-21T11:29:27.426Z,0.83
2022-11-21T11:31:58.992Z,0.90
2022-11-21T11:34:39.225Z,0.94
2022-11-21T11:37:40.341Z,1.01
2022-11-21T11:40:19.096Z,1.07
2022-11-21T11:43:23.628Z,1.06
2022-11-21T11:46:35.884Z,1.19
2022-11-21T11:49:52.957Z,1.17
2022-11-21T11:52:28.211Z,1.09
2022-11-21T11:55:08.313Z,1.15
2022-11-21T11:57:41.649Z,1.14
2022-11-21T12:00:45.517Z,1.25
2022-11-21T12:03:19.858Z,1.34
2022-11-21T12:06:12.486Z,1.41
2022-11-21T12:08:52.419Z,1.49
2022-11-21T12:11:48.970Z,1.62
2022-11-21T12:14:47.081Z,1.66
2022-11-21T12:17:25.317Z,1.69
2022-11-21T12:19:58.810Z,1.67
2022-11-21T12:22:30.169Z,1.69
2022-11-21T12:25:01.545Z,1.68
2022-11-21T12:27:34.140Z,1.69
2022-11-21T12:30:42.995Z,1.71
2022-11-21T12:33:21.730Z,1.74
2022-11-21T12:36:18.576Z,1.75
2022-11-21T12:39:03.267Z,1.76
2022-11-21T12:42:07.157Z,1.75
2022-11-21T12:45:03.440Z,1.75
2022-11-21T12:48:18.578Z,1.75
2022-11-21T12:51:31.861Z,1.71
2022-11-21T12:54:31.285Z,1.69
2022-11-21T12:57:05.691Z,1.72
2022-11-21T12:59:58.822Z,1.74
2022-11-21T13:02:48.624Z,1.78
2022-11-21T13:05:45.447Z,1.78
2022-11-21T13:08:24.691Z,1.86
2022-11-21T13:11:27.850Z,1.84
2022-11-21T13:14:04.365Z,1.92
2022-11-21T13:16:39.480Z,1.93
2022-11-21T13:19:31.879Z,1.99
2022-11-21T13:22:03.346Z,1.98
2022-11-21T13:24:47.616Z,2.02
2022-11-21T13:27:30.052Z,2.01
2022-11-21T13:30:07.599Z,2.00
2022-11-21T13:32:43.243Z,1.99
2022-11-21T13:35:14.975Z,1.97
2022-11-21T13:37:50.470Z,1.94
2022-11-21T13:40:30.533Z,1.93
2022-11-21T13:43:34.147Z,1.90
2022-11-21T13:46:05.958Z,1.87
2022-11-21T13:49:00.704Z,1.92
2022-11-21T13:51:52.616Z,1.94
2022-11-21T13:54:26.817Z,2.04
2022-11-21T13:57:40.297Z,2.10
2022-11-21T14:00:26.648Z,2.15
2022-11-21T14:03:16.620Z,2.19
2022-11-21T14:06:02.652Z,2.22
2022-11-21T14:08:34.235Z,2.20
2022-11-21T14:11:30.062Z,2.24
2022-11-21T14:14:01.867Z,2.22
2022-11-21T14:16:38.073Z,2.16
2022-11-21T14:19:14.830Z,2.09
2022-11-21T14:21:47.431Z,2.02
2022-11-21T14:24:19.665Z,1.93
2022-11-21T14:26:53.872Z,1.83
2022-11-21T14:29:37.583Z,1.76
2022-11-21T14:32:25.948Z,1.61
2022-11-21T14:35:10.803Z,1.56
2022-11-21T14:37:42.192Z,1.45
2022-11-21T14:40:21.244Z,1.36
2022-11-21T14:42:52.643Z,1.22
2022-11-21T14:45:24.246Z,1.18
2022-11-21T14:47:55.530Z,1.08
2022-11-21T14:50:29.731Z,1.02
2022-11-21T14:53:01.824Z,0.91
2022-11-21T14:55:33.390Z,0.82
2022-11-21T14:58:05.968Z,0.77
2022-11-21T15:00:58.470Z,0.67
2022-11-21T15:03:28.752Z,0.56
2022-11-21T15:06:06.467Z,0.51
2022-11-21T15:11:41.032Z,0.32
2022-11-21T15:14:27.993Z,0.22
2022-11-21T15:17:00.865Z,0.18
2022-11-21T15:19:32.766Z,0.09
2022-11-21T15:22:04.654Z,0.00
2022-11-21T15:24:42.137Z,-0.09
2022-11-21T15:27:28.509Z,-0.16
2022-11-21T15:30:21.240Z,-0.23
2022-11-21T15:33:13.440Z,-0.29
2022-11-21T15:35:49.218Z,-0.33
2022-11-21T15:38:41.660Z,-0.43
2022-11-21T15:41:14.406Z,-0.50
2022-11-21T15:43:48.148Z,-0.56
2022-11-21T15:46:33.928Z,-0.62
2022-11-21T15:49:31.428Z,-0.68
2022-11-21T15:52:13.332Z,-0.76
2022-11-21T15:54:44.812Z,-0.79
2022-11-21T15:59:54.488Z,-0.93
2022-11-21T16:02:25.820Z,-0.93
2022-11-21T16:04:57.092Z,-1.01
2022-11-21T16:07:28.446Z,-1.04
2022-11-21T16:09:59.876Z,-1.07
2022-11-21T16:12:31.256Z,-1.10
2022-11-21T16:15:02.543Z,-1.12
2022-11-21T16:17:33.911Z,-1.11
2022-11-21T16:20:05.825Z,-1.15
2022-11-21T16:22:38.030Z,-1.20
2022-11-21T16:25:11.764Z,-1.15
2022-11-21T16:27:43.198Z,-1.16
2022-11-21T16:30:14.883Z,-1.17
2022-11-21T16:32:47.124Z,-1.24
2022-11-21T16:35:18.524Z,-1.25
2022-11-21T16:37:52.035Z,-1.29
2022-11-21T16:40:23.316Z,-1.36
2022-11-21T16:43:07.944Z,-1.37
2022-11-21T16:45:39.720Z,-1.43
2022-11-21T16:48:11.009Z,-1.44
2022-11-21T16:50:42.470Z,-1.48
2022-11-21T16:53:14.832Z,-1.50
2022-11-21T16:55:46.096Z,-1.57
2022-11-21T16:58:17.448Z,-1.61
2022-11-21T17:00:48.826Z,-1.63
2022-11-21T17:03:23.484Z,-1.66
2022-11-21T17:05:58.689Z,-1.66
2022-11-21T17:08:29.987Z,-1.69
2022-11-21T17:11:12.592Z,-1.68
2022-11-21T17:13:45.516Z,-1.68
2022-11-21T17:16:19.523Z,-1.71
2022-11-21T17:18:55.262Z,-1.75
2022-11-21T17:21:28.219Z,-1.74
2022-11-21T17:23:59.605Z,-1.77
2022-11-21T17:26:30.925Z,-1.79
2022-11-21T17:29:05.187Z,-1.82
2022-11-21T17:31:36.487Z,-1.87
2022-11-21T17:34:08.148Z,-1.88
2022-11-21T17:36:39.412Z,-1.91
2022-11-21T17:39:12.617Z,-1.90
2022-11-21T17:41:44.492Z,-1.91
2022-11-21T17:44:16.195Z,-1.97
2022-11-21T17:46:47.666Z,-1.98
2022-11-21T17:49:19.009Z,-2.00
2022-11-21T17:51:55.206Z,-1.99
2022-11-21T17:54:28.223Z,-2.03
2022-11-21T17:57:00.008Z,-2.02
2022-11-21T17:59:31.757Z,-2.00
2022-11-21T18:02:03.309Z,-1.95
2022-11-21T18:04:38.742Z,-1.97
2022-11-21T18:07:10.301Z,-1.97
2022-11-21T18:09:41.663Z,-1.90
2022-11-21T18:12:13.078Z,-1.92
2022-11-21T18:14:44.342Z,-1.92
2022-11-21T18:17:15.624Z,-2.00
2022-11-21T18:19:46.897Z,-1.94
2022-11-21T18:22:18.210Z,-1.95
2022-11-21T18:24:49.656Z,-1.87
2022-11-21T18:27:21.068Z,-1.85
2022-11-21T18:29:52.552Z,-1.84
2022-11-21T18:32:23.997Z,-1.87
2022-11-21T18:34:55.287Z,-1.84
2022-11-21T18:37:26.698Z,-1.82
2022-11-21T18:39:58.057Z,-1.80
2022-11-21T18:42:31.729Z,-1.78
2022-11-21T18:45:03.708Z,-1.81
2022-11-21T18:47:35.103Z,-1.85
2022-11-21T18:50:06.864Z,-1.81
2022-11-21T18:52:42.220Z,-1.82
2022-11-21T18:55:17.690Z,-1.82
2022-11-21T18:57:48.985Z,-1.83
2022-11-21T19:00:20.449Z,-1.84
2022-11-21T19:02:51.769Z,-1.83
2022-11-21T19:05:23.035Z,-1.81
2022-11-21T19:07:54.352Z,-1.84
2022-11-21T19:10:42.532Z,-1.90
2022-11-21T19:13:15.306Z,-1.84
2022-11-21T19:15:46.652Z,-1.85
2022-11-21T19:18:17.961Z,-1.85
2022-11-21T19:20:49.352Z,-1.84
2022-11-21T19:23:20.877Z,-1.89
2022-11-21T19:25:52.943Z,-1.90
2022-11-21T19:28:24.288Z,-1.97
2022-11-21T19:30:57.056Z,-1.88
2022-11-21T19:33:30.267Z,-1.89
2022-11-21T19:36:06.454Z,-1.91
2022-11-21T19:38:37.923Z,-1.93
2022-11-21T19:41:13.636Z,-1.91
2022-11-21T19:43:49.265Z,-1.92
2022-11-21T19:46:31.125Z,-1.91
2022-11-21T19:49:03.667Z,-1.97
2022-11-21T19:51:37.965Z,-1.92
2022-11-21T19:54:12.225Z,-1.93
2022-11-21T19:56:43.576Z,-1.94
2022-11-21T19:59:15.000Z,-1.92
2022-11-21T20:01:51.140Z,-1.91
2022-11-21T20:04:23.865Z,-1.88
2022-11-21T20:06:57.270Z,-1.91
2022-11-21T20:09:33.374Z,-1.92
2022-11-21T20:12:06.385Z,-1.92
2022-11-21T20:14:37.671Z,-1.93
2022-11-21T20:17:09.000Z,-1.93
2022-11-21T20:19:40.337Z,-1.97
2022-11-21T20:22:11.706Z,-1.94
2022-11-21T20:24:47.429Z,-1.97
2022-11-21T20:27:21.708Z,-1.95
2022-11-21T20:29:52.970Z,-1.97
2022-11-21T20:32:28.138Z,-1.99
2022-11-21T20:34:59.400Z,-2.01
2022-11-21T20:37:30.656Z,-2.02
2022-11-21T20:40:01.993Z,-2.00
2022-11-21T20:42:34.394Z,-2.00
2022-11-21T20:47:57.619Z,-1.94
2022-11-21T20:51:10.978Z,-1.90
2022-11-21T20:53:51.999Z,-1.87
2022-11-21T20:56:14.352Z,-1.88
2022-11-21T20:58:46.488Z,-1.84
2022-11-21T21:01:20.688Z,-1.86
2022-11-21T21:03:52.191Z,-1.81
2022-11-21T21:06:24.158Z,-1.85
2022-11-21T21:08:55.612Z,-1.80
2022-11-21T21:14:18.375Z,-1.87
2022-11-21T21:16:50.111Z,-1.92
2022-11-21T21:19:21.780Z,-1.88
2022-11-21T21:21:53.176Z,-1.88
2022-11-21T21:24:24.649Z,-1.93
2022-11-21T21:26:55.913Z,-1.92
2022-11-21T21:29:27.529Z,-1.93
2022-11-21T21:31:58.853Z,-1.87
2022-11-21T21:34:30.482Z,-1.90
2022-11-21T21:37:01.881Z,-1.87
2022-11-21T21:39:33.197Z,-1.85
2022-11-21T21:42:04.533Z,-1.85
2022-11-21T21:44:36.217Z,-1.85
2022-11-21T21:47:11.044Z,-1.79
2022-11-21T21:49:42.424Z,-1.76
2022-11-21T21:52:14.185Z,-1.65
2022-11-21T21:54:45.611Z,-1.55
2022-11-21T21:57:16.968Z,-1.47
2022-11-21T21:59:48.235Z,-1.43
2022-11-21T22:02:19.716Z,-1.37
2022-11-21T22:04:52.166Z,-1.29
2022-11-21T22:07:23.903Z,-1.25
2022-11-21T22:09:55.433Z,-1.21
2022-11-21T22:12:26.914Z,-1.20
2022-11-21T22:14:58.227Z,-1.19
2022-11-21T22:17:29.476Z,-1.13
2022-11-21T22:20:00.824Z,-1.10
2022-11-21T22:22:32.108Z,-1.08
2022-11-21T22:25:03.574Z,-1.06
2022-11-21T22:27:34.831Z,-1.07
2022-11-21T22:30:06.551Z,-1.06
2022-11-21T22:32:37.889Z,-1.06
2022-11-21T22:35:09.203Z,-1.02
2022-11-21T22:37:40.462Z,-1.05
2022-11-21T22:40:12.519Z,-1.00
2022-11-21T22:42:43.818Z,-0.99
2022-11-21T22:45:15.080Z,-0.99
2022-11-21T22:47:48.173Z,-0.96
2022-11-21T22:50:20.128Z,-0.91
2022-11-21T22:53:01.017Z,-0.90
2022-11-21T22:55:33.121Z,-0.87
2022-11-21T22:58:05.007Z,-0.87
2022-11-21T23:00:37.173Z,-0.85
2022-11-21T23:03:09.056Z,-0.85
2022-11-21T23:05:40.757Z,-0.85
2022-11-21T23:08:12.745Z,-0.87
2022-11-21T23:10:44.029Z,-0.85
2022-11-21T23:13:15.273Z,-0.88
2022-11-21T23:15:46.591Z,-0.89
2022-11-21T23:18:17.852Z,-0.92
2022-11-21T23:20:49.173Z,-0.90
2022-11-21T23:23:20.554Z,-0.89
2022-11-21T23:25:52.356Z,-0.88
2022-11-21T23:28:23.768Z,-0.87
2022-11-21T23:30:55.202Z,-0.83
2022-11-21T23:33:26.447Z,-0.81
2022-11-21T23:35:57.737Z,-0.79
2022-11-21T23:38:28.995Z,-0.81
2022-11-21T23:41:00.277Z,-0.75
2022-11-21T23:43:31.651Z,-0.74
2022-11-21T23:46:02.928Z,-0.74
2022-11-21T23:48:34.204Z,-0.69
2022-11-21T23:51:05.533Z,-0.69
2022-11-21T23:53:37.179Z,-0.60
2022-11-21T23:56:08.821Z,-0.55
2022-11-21T23:58:43.565Z,-0.52
